Time;durP1;ratioP1;P1;durP2;ratioP2;P2;SDS_P1;SDS_P2;PMS_P1;PMS_P2;Temp;Humidity;BMP_temperature;BMP_pressure;BME280_temperature;BME280_humidity;BME280_pressure;Samples;Min_cycle;Max_cycle;Signal;HPM_P1;HPM_P2
2021/03/26 00:01:57;;;;;;;8.67;5.20;;;;;;;;;;5044908;28;20414;-70
2021/03/26 00:04:23;;;;;;;8.17;5.57;;;;;;;;;;5032398;28;20463;-69
2021/03/26 00:06:50;;;;;;;6.50;3.60;;;;;;;;;;5031714;28;20391;-70
2021/03/26 00:09:19;;;;;;;5.40;3.50;;;;;;;;;;5042167;28;20381;-70
2021/03/26 00:11:46;;;;;;;5.73;4.30;;;;;;;;;;5048420;28;20787;-70
2021/03/26 00:14:12;;;;;;;8.33;3.60;;;;;;;;;;5031761;28;20446;-69
2021/03/26 00:16:38;;;;;;;5.67;4.20;;;;;;;;;;5031773;28;20499;-70
2021/03/26 00:19:04;;;;;;;9.50;5.20;;;;;;;;;;5030089;28;20397;-70
2021/03/26 00:21:30;;;;;;;4.33;2.80;;;;;;;;;;5032113;28;20401;-70
2021/03/26 00:23:56;;;;;;;8.00;3.90;;;;;;;;;;5030233;28;20426;-70
2021/03/26 00:26:22;;;;;;;7.40;4.30;;;;;;;;;;5031245;28;20800;-70
2021/03/26 00:28:49;;;;;;;6.30;3.40;;;;;;;;;;5031662;28;20370;-70
2021/03/26 00:31:15;;;;;;;10.50;2.80;;;;;;;;;;5029865;28;20414;-70
2021/03/26 00:33:41;;;;;;;7.13;3.63;;;;;;;;;;5033899;28;20495;-70
2021/03/26 00:36:08;;;;;;;2.73;1.90;;;;;;;;;;5030766;28;20486;-71
2021/03/26 00:38:34;;;;;;;7.23;5.40;;;;;;;;;;5048104;28;20402;-70
2021/03/26 00:41:00;;;;;;;7.23;3.13;;;;;;;;;;5049778;28;21088;-70
2021/03/26 00:43:27;;;;;;;3.00;2.17;;;;;;;;;;5050707;28;20519;-70
2021/03/26 00:45:53;;;;;;;11.10;4.07;;;;;;;;;;5042215;28;20423;-70
2021/03/26 00:48:22;;;;;;;3.63;2.83;;;;;;;;;;5050827;28;20406;-70
2021/03/26 00:50:59;;;;;;;15.33;3.37;;;;;;;;;;5050985;28;20410;-70
2021/03/26 00:53:31;;;;;;;6.73;4.37;;;;;;;;;;5050610;28;20767;-70
2021/03/26 00:55:57;;;;;;;3.70;2.10;;;;;;;;;;5051035;28;21008;-70
2021/03/26 00:58:23;;;;;;;4.23;2.37;;;;;;;;;;5049700;28;20447;-70
2021/03/26 01:00:49;;;;;;;5.07;4.60;;;;;;;;;;5046217;28;20427;-70
2021/03/26 01:03:16;;;;;;;8.73;2.13;;;;;;;;;;5029620;28;20836;-70
2021/03/26 01:05:43;;;;;;;7.27;4.03;;;;;;;;;;5029197;28;20470;-70
2021/03/26 01:08:10;;;;;;;1.30;1.10;;;;;;;;;;5031056;28;20938;-70
2021/03/26 01:10:37;;;;;;;2.80;2.10;;;;;;;;;;5030526;28;20474;-70
2021/03/26 01:13:04;;;;;;;5.17;3.70;;;;;;;;;;5044747;28;20445;-69
2021/03/26 01:15:30;;;;;;;5.50;3.20;;;;;;;;;;5051037;28;20393;-68
2021/03/26 01:17:57;;;;;;;3.70;3.20;;;;;;;;;;5054529;28;20377;-68
2021/03/26 01:20:26;;;;;;;12.60;3.33;;;;;;;;;;5053720;28;20407;-69
2021/03/26 01:22:52;;;;;;;1.87;1.63;;;;;;;;;;5054218;28;20457;-69
2021/03/26 01:25:23;;;;;;;5.47;3.33;;;;;;;;;;5053561;28;20414;-69
2021/03/26 01:27:49;;;;;;;3.33;2.37;;;;;;;;;;5054766;28;20921;-69
2021/03/26 01:30:17;;;;;;;4.47;2.60;;;;;;;;;;5054403;28;20427;-70
2021/03/26 01:32:43;;;;;;;4.77;2.50;;;;;;;;;;5054421;28;20485;-70
2021/03/26 01:35:09;;;;;;;5.50;4.77;;;;;;;;;;5054306;28;20493;-69
2021/03/26 01:37:35;;;;;;;6.80;4.50;;;;;;;;;;5054390;28;20430;-69
2021/03/26 01:40:02;;;;;;;14.13;4.50;;;;;;;;;;5054217;28;20600;-70
2021/03/26 01:42:30;;;;;;;4.50;2.60;;;;;;;;;;5052782;28;20910;-70
2021/03/26 01:44:57;;;;;;;3.63;2.10;;;;;;;;;;5045343;28;20411;-70
2021/03/26 01:47:23;;;;;;;100.87;84.87;;;;;;;;;;5032793;28;20437;-68
2021/03/26 01:49:49;;;;;;;11.47;3.40;;;;;;;;;;5034726;28;20403;-69
2021/03/26 01:52:15;;;;;;;7.47;3.30;;;;;;;;;;5033931;28;20403;-70
2021/03/26 01:54:41;;;;;;;6.50;5.13;;;;;;;;;;5033511;28;20420;-70
2021/03/26 01:57:07;;;;;;;5.70;2.80;;;;;;;;;;5034136;28;20573;-70
2021/03/26 01:59:33;;;;;;;4.50;2.37;;;;;;;;;;5032812;28;20403;-70
2021/03/26 02:02:01;;;;;;;8.10;3.60;;;;;;;;;;5046399;28;20403;-68
2021/03/26 02:04:34;;;;;;;3.73;2.90;;;;;;;;;;5053688;28;20816;-70
2021/03/26 02:07:00;;;;;;;7.63;2.27;;;;;;;;;;5053990;28;20508;-68
2021/03/26 02:09:31;;;;;;;3.77;2.50;;;;;;;;;;5053630;28;20403;-70
2021/03/26 02:12:08;;;;;;;4.03;2.47;;;;;;;;;;5048542;28;20412;-71
2021/03/26 02:14:34;;;;;;;3.37;2.33;;;;;;;;;;5032270;28;20814;-71
2021/03/26 02:17:00;;;;;;;2.30;2.10;;;;;;;;;;5033856;28;20570;-70
2021/03/26 02:19:31;;;;;;;2.70;1.80;;;;;;;;;;5033972;28;20972;-70
2021/03/26 02:21:57;;;;;;;4.33;2.47;;;;;;;;;;5033036;28;20469;-70
2021/03/26 02:24:24;;;;;;;4.17;3.57;;;;;;;;;;5033818;28;20849;-71
2021/03/26 02:26:52;;;;;;;4.47;1.97;;;;;;;;;;5032535;28;20428;-72
2021/03/26 02:29:24;;;;;;;6.83;2.73;;;;;;;;;;5032628;28;20485;-70
2021/03/26 02:31:55;;;;;;;8.13;3.00;;;;;;;;;;5032746;28;20409;-69
2021/03/26 02:34:22;;;;;;;4.60;2.73;;;;;;;;;;5032999;28;20902;-70
2021/03/26 02:36:50;;;;;;;3.20;2.93;;;;;;;;;;5033410;28;20446;-70
2021/03/26 02:39:26;;;;;;;6.43;3.30;;;;;;;;;;5033128;28;21013;-72
2021/03/26 02:41:54;;;;;;;7.60;4.10;;;;;;;;;;5048416;28;20524;-71
2021/03/26 02:44:26;;;;;;;15.53;4.00;;;;;;;;;;5037030;28;20780;-70
2021/03/26 02:47:06;;;;;;;5.37;4.87;;;;;;;;;;5053608;28;20414;-70
2021/03/26 02:49:44;;;;;;;3.90;3.20;;;;;;;;;;5061247;28;20976;-71
2021/03/26 02:52:09;;;;;;;2.37;1.80;;;;;;;;;;5067905;28;20405;-70
2021/03/26 02:54:40;;;;;;;11.50;3.90;;;;;;;;;;5067770;28;20496;-71
2021/03/26 02:57:08;;;;;;;11.67;3.80;;;;;;;;;;5072832;28;20447;-70
2021/03/26 02:59:58;;;;;;;7.00;3.30;;;;;;;;;;5071797;28;20409;-70
2021/03/26 03:02:24;;;;;;;5.27;2.87;;;;;;;;;;5046085;28;20435;-70
2021/03/26 03:04:56;;;;;;;4.70;3.17;;;;;;;;;;5052922;28;20420;-69
2021/03/26 03:07:31;;;;;;;7.60;3.60;;;;;;;;;;5064178;28;20453;-70
2021/03/26 03:10:00;;;;;;;16.13;3.40;;;;;;;;;;5073257;28;20400;-69
2021/03/26 03:12:29;;;;;;;4.23;2.70;;;;;;;;;;5063214;28;20397;-70
2021/03/26 03:15:02;;;;;;;7.80;3.47;;;;;;;;;;5046677;28;20917;-69
2021/03/26 03:17:30;;;;;;;5.20;2.60;;;;;;;;;;5032685;28;20479;-68
2021/03/26 03:20:03;;;;;;;4.93;3.00;;;;;;;;;;5031193;28;20407;-69
2021/03/26 03:22:33;;;;;;;8.23;3.17;;;;;;;;;;5032397;28;20401;-70
2021/03/26 03:25:03;;;;;;;4.80;2.60;;;;;;;;;;5032378;28;20385;-70
2021/03/26 03:27:29;;;;;;;3.73;2.43;;;;;;;;;;5032796;28;20420;-70
2021/03/26 03:29:59;;;;;;;8.63;2.40;;;;;;;;;;5032306;28;20407;-70
2021/03/26 03:32:35;;;;;;;2.33;2.03;;;;;;;;;;5032119;28;20843;-69
2021/03/26 03:35:15;;;;;;;8.20;3.43;;;;;;;;;;5032361;28;20453;-70
2021/03/26 03:37:46;;;;;;;5.50;2.70;;;;;;;;;;5032115;28;20769;-70
2021/03/26 03:40:31;;;;;;;6.83;4.90;;;;;;;;;;5032066;28;20465;-70
2021/03/26 03:43:02;;;;;;;3.10;2.80;;;;;;;;;;5056350;28;20483;-70
2021/03/26 03:45:42;;;;;;;6.30;5.23;;;;;;;;;;5044881;28;20405;-70
2021/03/26 03:48:10;;;;;;;7.10;4.07;;;;;;;;;;5041858;28;20426;-70
2021/03/26 03:50:41;;;;;;;8.33;4.03;;;;;;;;;;5065191;28;20416;-70
2021/03/26 03:53:16;;;;;;;3.40;2.70;;;;;;;;;;5058435;28;20431;-71
2021/03/26 03:55:45;;;;;;;3.20;2.40;;;;;;;;;;5044590;28;20528;-70
2021/03/26 03:58:11;;;;;;;4.80;3.20;;;;;;;;;;5049065;28;20452;-70
2021/03/26 04:00:45;;;;;;;10.83;2.70;;;;;;;;;;5050155;28;20455;-70
2021/03/26 04:03:20;;;;;;;8.70;3.30;;;;;;;;;;5031656;28;20423;-70
2021/03/26 04:05:55;;;;;;;10.50;3.80;;;;;;;;;;5031531;28;20429;-71
2021/03/26 04:08:23;;;;;;;6.30;3.70;;;;;;;;;;5031896;28;20479;-70
2021/03/26 04:10:51;;;;;;;11.27;2.77;;;;;;;;;;5031218;28;20401;-71
2021/03/26 04:13:24;;;;;;;6.10;2.73;;;;;;;;;;5047444;28;20463;-69
2021/03/26 04:15:54;;;;;;;8.73;3.27;;;;;;;;;;5058842;28;20436;-70
2021/03/26 04:18:27;;;;;;;4.37;3.20;;;;;;;;;;5062590;28;20411;-71
2021/03/26 04:20:55;;;;;;;5.07;2.87;;;;;;;;;;5071594;28;20457;-70
2021/03/26 04:23:27;;;;;;;7.13;2.70;;;;;;;;;;5050634;28;20771;-69
2021/03/26 04:26:01;;;;;;;5.03;3.50;;;;;;;;;;5051366;28;20482;-70
2021/03/26 04:28:34;;;;;;;8.93;5.50;;;;;;;;;;5050920;28;20462;-69
2021/03/26 04:31:02;;;;;;;4.87;3.03;;;;;;;;;;5051040;28;20416;-70
2021/03/26 04:33:29;;;;;;;4.33;3.67;;;;;;;;;;5051151;28;20543;-70
2021/03/26 04:35:56;;;;;;;4.10;3.80;;;;;;;;;;5064678;22;20434;-67
2021/03/26 04:38:41;;;;;;;6.50;4.23;;;;;;;;;;5023627;28;20447;-67
2021/03/26 04:41:19;;;;;;;12.53;4.27;;;;;;;;;;5049153;28;20423;-67
2021/03/26 04:43:55;;;;;;;4.30;3.30;;;;;;;;;;5044274;28;20983;-66
2021/03/26 04:46:32;;;;;;;4.10;1.90;;;;;;;;;;5051444;28;20476;-67
2021/03/26 04:48:58;;;;;;;7.33;2.83;;;;;;;;;;5055029;28;20402;-67
2021/03/26 04:51:33;;;;;;;7.50;2.47;;;;;;;;;;5036079;28;20413;-67
2021/03/26 04:54:15;;;;;;;7.17;4.13;;;;;;;;;;5041347;28;20452;-67
2021/03/26 04:56:46;;;;;;;2.13;1.37;;;;;;;;;;5053645;28;20427;-66
2021/03/26 04:59:13;;;;;;;6.80;4.17;;;;;;;;;;5053589;28;20400;-67
2021/03/26 05:01:42;;;;;;;3.17;2.17;;;;;;;;;;5044143;28;20561;-66
2021/03/26 05:04:34;;;;;;;4.70;3.13;;;;;;;;;;5072523;28;20410;-65
2021/03/26 05:07:01;;;;;;;1.03;0.93;;;;;;;;;;5046211;28;20999;-66
2021/03/26 05:09:30;;;;;;;3.73;2.97;;;;;;;;;;5049672;28;20455;-65
2021/03/26 05:11:59;;;;;;;6.50;3.93;;;;;;;;;;5043634;28;20413;-66
2021/03/26 05:14:31;;;;;;;8.47;3.17;;;;;;;;;;5051946;28;20453;-68
2021/03/26 05:17:17;;;;;;;4.00;3.80;;;;;;;;;;5049748;28;20452;-69
2021/03/26 05:19:50;;;;;;;8.77;4.03;;;;;;;;;;5049790;28;20467;-68
2021/03/26 05:22:31;;;;;;;4.87;3.17;;;;;;;;;;5050517;28;20896;-69
2021/03/26 05:25:01;;;;;;;4.53;3.57;;;;;;;;;;5051497;28;20436;-69
2021/03/26 05:27:27;;;;;;;52.33;46.97;;;;;;;;;;5048500;28;20940;-69
2021/03/26 05:29:53;;;;;;;16.33;15.03;;;;;;;;;;5048197;28;20389;-68
2021/03/26 05:32:38;;;;;;;5.07;2.70;;;;;;;;;;5048994;28;20492;-69
2021/03/26 05:35:03;;;;;;;263.43;144.47;;;;;;;;;;5046463;28;20903;-69
2021/03/26 05:37:35;;;;;;;7.53;2.20;;;;;;;;;;5047043;28;20531;-68
2021/03/26 05:40:09;;;;;;;65.93;32.90;;;;;;;;;;5049151;28;20465;-69
2021/03/26 05:42:37;;;;;;;3.13;2.60;;;;;;;;;;5046279;28;20900;-68
2021/03/26 05:45:33;;;;;;;4.13;2.00;;;;;;;;;;5047674;28;20744;-69
2021/03/26 05:48:22;;;;;;;3.60;3.40;;;;;;;;;;5005824;28;20424;-67
2021/03/26 05:51:01;;;;;;;4.23;2.90;;;;;;;;;;5056727;28;20472;-67
2021/03/26 05:53:46;;;;;;;2.80;2.50;;;;;;;;;;5056002;28;20442;-67
2021/03/26 05:56:31;;;;;;;4.23;3.23;;;;;;;;;;5054449;28;20541;-67
2021/03/26 05:58:57;;;;;;;9.60;3.07;;;;;;;;;;5054773;28;20409;-66
2021/03/26 06:01:35;;;;;;;3.87;3.27;;;;;;;;;;5058264;28;20399;-65
2021/03/26 06:04:14;;;;;;;2.87;2.17;;;;;;;;;;5060513;28;20819;-67
2021/03/26 06:06:42;;;;;;;5.07;4.60;;;;;;;;;;5041914;28;20443;-66
2021/03/26 06:09:12;;;;;;;1.97;1.77;;;;;;;;;;5060937;28;20911;-66
2021/03/26 06:11:56;;;;;;;9.43;4.00;;;;;;;;;;5062147;28;20896;-68
2021/03/26 06:14:45;;;;;;;3.83;3.43;;;;;;;;;;5061391;28;20453;-67
2021/03/26 06:17:25;;;;;;;7.07;3.40;;;;;;;;;;5061060;28;20433;-68
2021/03/26 06:19:54;;;;;;;3.50;2.27;;;;;;;;;;5059490;28;20396;-66
2021/03/26 06:22:29;;;;;;;8.30;4.23;;;;;;;;;;5059970;28;20392;-67
2021/03/26 06:25:20;;;;;;;3.47;2.20;;;;;;;;;;5058250;28;20430;-67
2021/03/26 06:27:46;;;;;;;8.23;3.20;;;;;;;;;;5056999;28;20428;-65
2021/03/26 06:30:21;;;;;;;5.73;3.70;;;;;;;;;;5060408;28;20417;-67
2021/03/26 06:32:53;;;;;;;13.87;5.90;;;;;;;;;;5057767;28;20417;-67
2021/03/26 06:35:38;;;;;;;5.43;2.70;;;;;;;;;;5060691;28;20505;-67
2021/03/26 06:38:10;;;;;;;10.90;3.70;;;;;;;;;;5053953;28;20510;-66
2021/03/26 06:40:45;;;;;;;5.80;2.60;;;;;;;;;;5059425;28;20592;-68
2021/03/26 06:43:24;;;;;;;2.30;2.10;;;;;;;;;;5056727;28;20445;-68
2021/03/26 06:46:00;;;;;;;4.43;3.30;;;;;;;;;;5058869;28;20500;-67
2021/03/26 06:48:26;;;;;;;5.10;4.30;;;;;;;;;;5056261;28;20408;-67
2021/03/26 06:51:05;;;;;;;10.27;4.13;;;;;;;;;;5060476;28;20398;-67
2021/03/26 06:53:38;;;;;;;6.60;4.80;;;;;;;;;;5059553;28;20468;-68
2021/03/26 06:56:27;;;;;;;10.10;6.30;;;;;;;;;;5039868;28;20906;-68
2021/03/26 06:59:16;;;;;;;5.37;2.80;;;;;;;;;;5043809;28;20430;-67
2021/03/26 07:01:48;;;;;;;10.60;2.00;;;;;;;;;;5036260;28;20407;-68
2021/03/26 07:04:24;;;;;;;6.13;3.27;;;;;;;;;;5064638;28;20407;-68
2021/03/26 07:06:53;;;;;;;5.10;3.47;;;;;;;;;;5064130;28;20488;-70
2021/03/26 07:09:37;;;;;;;3.23;2.90;;;;;;;;;;5069792;28;20430;-68
2021/03/26 07:12:06;;;;;;;4.47;3.10;;;;;;;;;;5068390;28;20409;-68
2021/03/26 07:14:45;;;;;;;5.57;3.27;;;;;;;;;;5069085;28;20453;-68
2021/03/26 07:17:26;;;;;;;6.40;3.10;;;;;;;;;;5060928;28;20450;-66
2021/03/26 07:20:18;;;;;;;4.10;2.87;;;;;;;;;;5051201;28;20406;-65
2021/03/26 07:23:09;;;;;;;8.10;4.00;;;;;;;;;;5046784;28;20410;-67
2021/03/26 07:25:51;;;;;;;3.20;2.73;;;;;;;;;;5035832;28;20411;-66
2021/03/26 07:28:28;;;;;;;16.40;5.60;;;;;;;;;;5054848;28;20456;-67
2021/03/26 07:31:13;;;;;;;12.27;3.47;;;;;;;;;;5053652;28;20448;-67
2021/03/26 07:33:44;;;;;;;6.47;5.13;;;;;;;;;;5053678;28;20477;-67
2021/03/26 07:36:34;;;;;;;7.87;2.40;;;;;;;;;;5034887;28;20434;-67
2021/03/26 07:39:09;;;;;;;7.77;6.17;;;;;;;;;;5058193;28;20402;-67
2021/03/26 07:41:41;;;;;;;9.77;3.87;;;;;;;;;;5056631;28;20489;-66
2021/03/26 07:44:34;;;;;;;3.33;2.70;;;;;;;;;;5048791;28;20415;-65
2021/03/26 07:47:19;;;;;;;8.40;5.67;;;;;;;;;;5058314;28;21037;-68
2021/03/26 07:49:50;;;;;;;3.03;2.80;;;;;;;;;;5055092;28;20403;-66
2021/03/26 07:52:33;;;;;;;13.10;6.53;;;;;;;;;;5055538;28;20403;-68
2021/03/26 07:55:08;;;;;;;11.70;4.10;;;;;;;;;;5052120;28;20416;-68
2021/03/26 07:57:57;;;;;;;5.60;4.20;;;;;;;;;;5056877;28;20971;-67
2021/03/26 08:00:42;;;;;;;11.40;4.40;;;;;;;;;;5046897;28;20386;-68
2021/03/26 08:03:14;;;;;;;7.53;4.93;;;;;;;;;;5061546;28;20399;-67
2021/03/26 08:05:42;;;;;;;7.03;4.10;;;;;;;;;;5060572;28;20456;-68
2021/03/26 08:08:18;;;;;;;16.07;5.10;;;;;;;;;;5061704;28;20411;-69
2021/03/26 08:10:57;;;;;;;12.73;6.87;;;;;;;;;;5063148;28;20421;-67
2021/03/26 08:13:31;;;;;;;9.93;5.00;;;;;;;;;;5065216;28;20477;-67
2021/03/26 08:16:02;;;;;;;7.67;3.77;;;;;;;;;;5041606;28;20466;-66
2021/03/26 08:18:47;;;;;;;4.50;4.10;;;;;;;;;;5064724;28;20373;-68
2021/03/26 08:21:32;;;;;;;9.67;5.23;;;;;;;;;;5044737;28;20411;-68
2021/03/26 08:24:27;;;;;;;7.33;5.33;;;;;;;;;;5041883;28;20561;-70
2021/03/26 08:26:56;;;;;;;11.67;5.30;;;;;;;;;;5061493;28;20418;-67
2021/03/26 08:29:41;;;;;;;11.17;5.67;;;;;;;;;;5040835;28;20960;-67
2021/03/26 08:32:13;;;;;;;9.07;5.33;;;;;;;;;;5062568;28;20764;-68
2021/03/26 08:34:58;;;;;;;9.40;6.53;;;;;;;;;;5059192;28;20842;-68
2021/03/26 08:37:46;;;;;;;12.03;5.13;;;;;;;;;;5057097;28;20436;-68
2021/03/26 08:40:16;;;;;;;14.67;4.77;;;;;;;;;;5040112;28;20415;-67
2021/03/26 08:42:44;;;;;;;9.77;4.80;;;;;;;;;;5057557;28;20412;-69
2021/03/26 08:45:10;;;;;;;11.70;6.27;;;;;;;;;;5057144;28;20394;-67
2021/03/26 08:47:38;;;;;;;8.77;6.93;;;;;;;;;;5052944;28;21270;-67
2021/03/26 08:50:23;;;;;;;12.13;5.20;;;;;;;;;;5052180;28;20406;-68
2021/03/26 08:52:58;;;;;;;9.87;8.50;;;;;;;;;;5048410;28;20403;-68
2021/03/26 08:55:27;;;;;;;8.93;4.50;;;;;;;;;;5047144;28;20399;-68
2021/03/26 08:57:53;;;;;;;7.77;4.60;;;;;;;;;;5050617;28;20401;-66
2021/03/26 09:00:37;;;;;;;9.90;6.30;;;;;;;;;;5054927;28;20548;-67
2021/03/26 09:03:24;;;;;;;15.47;7.17;;;;;;;;;;5032437;28;20893;-69
2021/03/26 09:05:52;;;;;;;14.30;8.43;;;;;;;;;;4995970;28;20411;-70
2021/03/26 09:08:37;;;;;;;7.83;5.93;;;;;;;;;;5049038;28;20457;-70
2021/03/26 09:11:21;;;;;;;9.87;6.00;;;;;;;;;;5047383;28;20398;-70
2021/03/26 09:13:50;;;;;;;9.83;5.60;;;;;;;;;;5052696;28;20474;-69
2021/03/26 09:16:20;;;;;;;8.57;4.93;;;;;;;;;;5048223;28;20411;-70
2021/03/26 09:18:50;;;;;;;12.27;5.57;;;;;;;;;;5050388;28;20429;-69
2021/03/26 09:21:35;;;;;;;6.60;5.00;;;;;;;;;;5046300;28;20411;-70
2021/03/26 09:24:10;;;;;;;66.20;49.70;;;;;;;;;;5048182;28;20397;-71
2021/03/26 09:26:56;;;;;;;53.53;37.57;;;;;;;;;;5048976;28;20984;-71
2021/03/26 09:29:32;;;;;;;8.30;4.20;;;;;;;;;;5049539;28;20397;-69
2021/03/26 09:32:00;;;;;;;5.50;4.30;;;;;;;;;;5044107;28;20465;-69
2021/03/26 09:34:31;;;;;;;12.77;4.23;;;;;;;;;;5047932;28;20493;-70
2021/03/26 09:37:18;;;;;;;15.63;4.10;;;;;;;;;;5050003;28;20545;-69
2021/03/26 09:39:45;;;;;;;6.27;4.40;;;;;;;;;;5015020;28;21129;-71
2021/03/26 09:42:29;;;;;;;11.20;6.47;;;;;;;;;;5032970;28;20423;-69
2021/03/26 09:45:01;;;;;;;10.70;5.10;;;;;;;;;;5032859;28;20410;-70
2021/03/26 09:47:30;;;;;;;4.57;3.53;;;;;;;;;;5052696;28;20469;-69
2021/03/26 09:50:02;;;;;;;5.40;4.00;;;;;;;;;;5053081;28;20501;-70
2021/03/26 09:52:33;;;;;;;6.57;3.90;;;;;;;;;;5052236;28;20751;-71
2021/03/26 09:55:05;;;;;;;5.10;3.63;;;;;;;;;;5049689;28;20474;-70
2021/03/26 09:57:37;;;;;;;4.93;3.53;;;;;;;;;;5052417;28;20431;-70
2021/03/26 10:00:12;;;;;;;8.97;3.77;;;;;;;;;;5032644;28;20468;-69
2021/03/26 10:02:42;;;;;;;3.27;2.97;;;;;;;;;;5047775;28;20505;-70
2021/03/26 10:05:08;;;;;;;5.63;3.93;;;;;;;;;;5045767;28;20929;-70
2021/03/26 10:07:44;;;;;;;5.10;3.40;;;;;;;;;;5052684;28;20427;-73
2021/03/26 10:10:43;;;;;;;4.23;3.63;;;;;;;;;;5052843;28;20409;-71
2021/03/26 10:13:02;;;;;;;25.37;4.57;;;;;;;;;;5051631;28;20556;-70
2021/03/26 10:15:32;;;;;;;2.87;2.57;;;;;;;;;;5052598;28;20434;-69
2021/03/26 10:18:10;;;;;;;4.43;3.10;;;;;;;;;;5051850;28;20199;-70
2021/03/26 10:20:48;;;;;;;6.40;3.07;;;;;;;;;;5053612;28;20407;-70
2021/03/26 10:23:26;;;;;;;4.87;2.83;;;;;;;;;;5048713;28;20407;-70
2021/03/26 10:26:01;;;;;;;3.10;2.20;;;;;;;;;;5054526;28;20446;-70
2021/03/26 10:28:34;;;;;;;4.03;3.43;;;;;;;;;;5030469;28;20410;-72
2021/03/26 10:31:07;;;;;;;4.10;2.83;;;;;;;;;;5051407;28;20431;-70
2021/03/26 10:33:35;;;;;;;4.90;2.20;;;;;;;;;;5046263;28;21037;-70
2021/03/26 10:36:04;;;;;;;5.37;2.70;;;;;;;;;;5057834;28;20518;-68
2021/03/26 10:38:39;;;;;;;9.27;3.70;;;;;;;;;;5075482;22;20482;-73
2021/03/26 10:41:10;;;;;;;4.20;3.67;;;;;;;;;;5035236;28;20456;-75
2021/03/26 10:43:44;;;;;;;4.23;2.40;;;;;;;;;;5034764;28;20458;-75
2021/03/26 10:46:13;;;;;;;4.27;2.57;;;;;;;;;;5052150;28;20502;-74
2021/03/26 10:48:50;;;;;;;6.40;3.20;;;;;;;;;;5034201;28;20512;-75
2021/03/26 10:51:16;;;;;;;4.47;2.80;;;;;;;;;;5034827;28;20403;-71
2021/03/26 10:53:45;;;;;;;7.00;3.13;;;;;;;;;;5055520;28;20510;-76
2021/03/26 10:56:27;;;;;;;5.10;3.03;;;;;;;;;;5059067;28;20180;-75
2021/03/26 10:58:59;;;;;;;3.47;2.00;;;;;;;;;;5041402;28;20464;-79
2021/03/26 11:01:34;;;;;;;10.33;3.20;;;;;;;;;;5057707;28;20416;-78
2021/03/26 11:04:10;;;;;;;2.50;1.70;;;;;;;;;;5056780;28;20446;-75
2021/03/26 11:06:36;;;;;;;4.40;3.77;;;;;;;;;;5055543;28;20410;-74
2021/03/26 11:09:05;;;;;;;10.77;5.10;;;;;;;;;;5029320;28;21148;-73
2021/03/26 11:11:54;;;;;;;3.60;2.60;;;;;;;;;;5037479;28;20169;-75
2021/03/26 11:14:23;;;;;;;5.93;2.90;;;;;;;;;;5019972;28;20455;-78
2021/03/26 11:16:59;;;;;;;5.43;2.30;;;;;;;;;;5033211;28;20422;-78
2021/03/26 11:19:37;;;;;;;2.97;1.97;;;;;;;;;;5052137;28;20370;-78
2021/03/26 11:22:26;;;;;;;4.10;1.77;;;;;;;;;;5051323;28;20407;-77
2021/03/26 11:25:18;;;;;;;7.53;2.37;;;;;;;;;;5023222;28;20449;-78
2021/03/26 11:27:49;;;;;;;4.70;3.87;;;;;;;;;;5043606;28;20425;-78
2021/03/26 11:30:18;;;;;;;3.40;2.80;;;;;;;;;;5031065;28;20393;-77
2021/03/26 11:32:46;;;;;;;5.17;3.30;;;;;;;;;;5040543;28;20401;-78
2021/03/26 11:35:14;;;;;;;8.53;4.07;;;;;;;;;;5047384;28;20439;-78
2021/03/26 11:37:54;;;;;;;2.83;1.97;;;;;;;;;;5049593;28;20819;-77
2021/03/26 11:40:31;;;;;;;4.40;2.23;;;;;;;;;;5050253;28;20389;-77
2021/03/26 11:43:03;;;;;;;4.60;2.30;;;;;;;;;;5052938;28;20401;-80
2021/03/26 11:45:50;;;;;;;2.67;2.47;;;;;;;;;;5032914;28;20452;-77
2021/03/26 11:48:22;;;;;;;3.20;2.07;;;;;;;;;;4996663;28;20458;-77
2021/03/26 11:50:51;;;;;;;3.27;1.83;;;;;;;;;;5045673;28;20438;-76
2021/03/26 11:53:24;;;;;;;4.87;3.40;;;;;;;;;;5025703;28;20374;-77
2021/03/26 11:56:09;;;;;;;4.80;3.47;;;;;;;;;;5016310;28;20472;-77
2021/03/26 11:58:40;;;;;;;8.37;3.17;;;;;;;;;;5030036;28;20465;-78
2021/03/26 12:01:09;;;;;;;1.60;1.23;;;;;;;;;;5034771;28;20450;-79
2021/03/26 12:03:49;;;;;;;6.77;3.40;;;;;;;;;;5033914;28;20479;-78
2021/03/26 12:06:22;;;;;;;3.03;2.57;;;;;;;;;;5031894;28;20404;-78
2021/03/26 12:09:04;;;;;;;5.53;3.33;;;;;;;;;;5048033;28;20427;-78
2021/03/26 12:11:49;;;;;;;2.53;2.07;;;;;;;;;;5032741;28;20450;-78
2021/03/26 12:14:24;;;;;;;2.27;1.30;;;;;;;;;;5032121;28;20410;-78
2021/03/26 12:17:05;;;;;;;3.10;2.10;;;;;;;;;;5029834;28;20961;-73
2021/03/26 12:19:36;;;;;;;8.50;3.67;;;;;;;;;;5043059;28;20498;-75
2021/03/26 12:22:30;;;;;;;4.60;4.17;;;;;;;;;;5043904;28;20402;-75
2021/03/26 12:25:02;;;;;;;1.83;1.73;;;;;;;;;;5038467;28;20441;-74
2021/03/26 12:27:28;;;;;;;3.73;3.37;;;;;;;;;;5026811;28;20962;-74
2021/03/26 12:29:58;;;;;;;3.30;1.87;;;;;;;;;;5052108;28;20378;-75
2021/03/26 12:32:28;;;;;;;2.50;1.57;;;;;;;;;;5038237;28;20827;-76
2021/03/26 12:34:57;;;;;;;4.40;2.83;;;;;;;;;;5053730;28;20403;-77
2021/03/26 12:37:44;;;;;;;2.97;1.97;;;;;;;;;;5033839;28;20565;-76
2021/03/26 12:40:22;;;;;;;3.93;1.70;;;;;;;;;;5050389;28;20407;-76
2021/03/26 12:42:52;;;;;;;3.10;2.80;;;;;;;;;;5031689;28;20511;-77
2021/03/26 12:45:21;;;;;;;2.83;2.33;;;;;;;;;;5048434;28;20478;-79
2021/03/26 12:47:50;;;;;;;3.87;2.43;;;;;;;;;;5029213;28;20467;-76
2021/03/26 12:50:16;;;;;;;2.57;2.37;;;;;;;;;;5049660;28;20399;-77
2021/03/26 12:52:57;;;;;;;2.13;1.70;;;;;;;;;;5030982;28;20458;-76
2021/03/26 12:55:45;;;;;;;5.57;3.43;;;;;;;;;;5024088;28;20411;-76
2021/03/26 12:58:19;;;;;;;4.73;2.63;;;;;;;;;;5042708;28;20434;-76
2021/03/26 13:00:49;;;;;;;6.57;3.10;;;;;;;;;;5025410;28;20425;-76
2021/03/26 13:03:19;;;;;;;9.40;2.17;;;;;;;;;;5045532;28;20963;-79
2021/03/26 13:05:47;;;;;;;3.63;3.23;;;;;;;;;;5032318;28;21674;-76
2021/03/26 13:08:17;;;;;;;6.50;2.83;;;;;;;;;;5050327;28;20422;-76
2021/03/26 13:10:50;;;;;;;2.80;2.13;;;;;;;;;;5032309;28;20494;-77
2021/03/26 13:13:35;;;;;;;8.27;4.17;;;;;;;;;;5065742;28;20427;-75
2021/03/26 13:16:20;;;;;;;5.13;3.30;;;;;;;;;;5050353;28;20382;-78
2021/03/26 13:18:56;;;;;;;7.37;3.47;;;;;;;;;;5033408;28;20405;-76
2021/03/26 13:21:40;;;;;;;3.20;2.93;;;;;;;;;;5024689;28;20390;-76
2021/03/26 13:24:13;;;;;;;4.13;3.67;;;;;;;;;;5043710;28;20435;-76
2021/03/26 13:26:40;;;;;;;4.00;3.70;;;;;;;;;;5048814;28;20384;-77
2021/03/26 13:29:09;;;;;;;7.40;3.03;;;;;;;;;;5045044;28;20413;-76
2021/03/26 13:31:39;;;;;;;8.40;5.10;;;;;;;;;;5040827;28;20415;-76
2021/03/26 13:34:08;;;;;;;5.90;3.47;;;;;;;;;;5050289;28;20398;-76
2021/03/26 13:36:57;;;;;;;8.00;3.70;;;;;;;;;;5031938;28;20389;-76
2021/03/26 13:39:30;;;;;;;4.50;4.07;;;;;;;;;;5042531;28;20386;-76
2021/03/26 13:42:05;;;;;;;4.23;3.80;;;;;;;;;;5048113;28;20868;-77
2021/03/26 13:44:40;;;;;;;7.10;5.47;;;;;;;;;;5030849;28;20452;-77
2021/03/26 13:47:11;;;;;;;5.63;2.83;;;;;;;;;;5028611;28;20443;-78
2021/03/26 13:49:45;;;;;;;3.53;2.80;;;;;;;;;;5042225;28;20378;-78
2021/03/26 13:52:14;;;;;;;8.30;4.40;;;;;;;;;;5047764;28;20423;-77
2021/03/26 13:54:42;;;;;;;4.33;3.13;;;;;;;;;;5048644;28;20418;-78
2021/03/26 13:57:17;;;;;;;9.87;5.37;;;;;;;;;;5049460;28;20829;-79
2021/03/26 13:59:56;;;;;;;6.83;4.37;;;;;;;;;;5033347;28;20423;-79
2021/03/26 14:02:22;;;;;;;8.77;3.03;;;;;;;;;;5035096;28;20385;-79
2021/03/26 14:04:57;;;;;;;6.23;3.50;;;;;;;;;;5048394;28;20520;-78
2021/03/26 14:07:26;;;;;;;6.63;4.20;;;;;;;;;;5041854;28;21165;-78
2021/03/26 14:09:58;;;;;;;8.10;3.37;;;;;;;;;;5028982;28;20408;-77
2021/03/26 14:12:32;;;;;;;6.77;3.53;;;;;;;;;;5044614;28;20875;-77
2021/03/26 14:15:02;;;;;;;6.93;3.67;;;;;;;;;;5026679;28;20487;-76
2021/03/26 14:17:42;;;;;;;4.63;2.87;;;;;;;;;;5026067;28;20417;-77
2021/03/26 14:20:09;;;;;;;5.10;3.30;;;;;;;;;;5048019;28;20472;-77
2021/03/26 14:22:47;;;;;;;6.07;2.70;;;;;;;;;;5029577;28;20890;-76
2021/03/26 14:25:25;;;;;;;3.77;2.57;;;;;;;;;;5033708;28;21031;-76
2021/03/26 14:27:51;;;;;;;8.10;4.77;;;;;;;;;;5046992;28;20924;-77
2021/03/26 14:30:20;;;;;;;9.33;7.20;;;;;;;;;;5050505;28;20811;-78
2021/03/26 14:32:58;;;;;;;5.70;2.97;;;;;;;;;;5036754;28;20401;-76
2021/03/26 14:35:30;;;;;;;4.57;3.20;;;;;;;;;;5068659;28;20391;-76
2021/03/26 14:37:58;;;;;;;5.67;2.80;;;;;;;;;;5059456;28;20432;-76
2021/03/26 14:40:26;;;;;;;2.90;2.10;;;;;;;;;;5077645;28;20425;-76
2021/03/26 14:43:05;;;;;;;5.20;2.63;;;;;;;;;;5072299;28;20402;-75
2021/03/26 14:45:42;;;;;;;3.73;3.20;;;;;;;;;;5048556;28;20471;-76
2021/03/26 14:48:20;;;;;;;6.10;5.10;;;;;;;;;;5069607;28;20404;-76
2021/03/26 14:50:48;;;;;;;3.17;2.40;;;;;;;;;;5052985;28;20422;-77
2021/03/26 14:53:16;;;;;;;5.07;3.00;;;;;;;;;;5050668;28;20411;-76
2021/03/26 14:55:44;;;;;;;3.63;3.33;;;;;;;;;;5032023;28;21494;-76
2021/03/26 14:58:18;;;;;;;5.43;3.03;;;;;;;;;;5052343;28;20426;-76
2021/03/26 15:00:49;;;;;;;12.40;2.63;;;;;;;;;;5050436;28;20426;-78
2021/03/26 15:03:34;;;;;;;3.00;2.43;;;;;;;;;;5034409;28;20437;-77
2021/03/26 15:06:03;;;;;;;5.13;3.10;;;;;;;;;;5052004;28;20402;-77
2021/03/26 15:08:35;;;;;;;7.90;3.57;;;;;;;;;;5032164;28;20435;-76
2021/03/26 15:11:04;;;;;;;4.23;2.73;;;;;;;;;;5034050;28;20431;-78
2021/03/26 15:13:34;;;;;;;4.40;3.00;;;;;;;;;;5038424;28;20481;-77
2021/03/26 15:16:05;;;;;;;5.30;3.27;;;;;;;;;;5048143;28;20412;-78
2021/03/26 15:18:31;;;;;;;6.97;3.37;;;;;;;;;;5049848;28;20409;-79